Dzhambejty, Kazakhstan
Current Conditions -  °F | °C
As of 4:00 PM on Thursday 30 Oct 2014 (Local Time) from UARR Reporting Station
Clear Clear  
Wind Chill: 43°   Ceiling: Unl
Heat Index: 48°   Visibility: 6mi
Dew Point: 34°   Wind: 13mph
Humidity: 57%   Direction: 190°S
Pressure: 30.36"   Gusts: NA
Location:  50.25°N, 52.57°E
Report Text: UARR 301200Z 19006MPS CAVOK 09/01 Q1028 R88/////// NOSIG RMKQFE768/1024
Loading
Personal Weather Stations






























Interactive Weather Map
Tropical Storm Tracking
New forecast layout! Learn more

10-Day Weather Forecast

Advertisements
Track Severe Weather on mobile